METAR Data
IDs: Format: Raw Decoded Include TAF

Data at: 1433 UTC 22 Apr 2021

KHEG 221415Z AUTO 01009KT CLR 13/03 A3020 RMK AO2
KHEG 221355Z AUTO 01006G11KT CLR 12/02 A3020 RMK AO2
KHEG 221335Z AUTO 36006G13KT CLR 11/01 A3020 RMK AO2
KHEG 221315Z AUTO 03010G16KT CLR 11/01 A3020 RMK AO2
KHEG 221255Z AUTO 36008KT CLR 10/00 A3020 RMK AO2
KHEG 221235Z AUTO 35010G15KT CLR 11/00 A3019 RMK AO2
KHEG 221215Z AUTO 35009KT CLR 10/M00 A3020 RMK AO2
KHEG 221155Z AUTO 35008G15KT CLR 10/M00 A3019 RMK AO2
KHEG 221135Z AUTO 36008KT 320V020 CLR 10/M00 A3018 RMK AO2
KHEG 221115Z AUTO 34009KT CLR 10/M01 A3017 RMK AO2
KHEG 221055Z AUTO 34009KT CLR 10/M01 A3016 RMK AO2
KHEG 221035Z AUTO 36006G12KT CLR 10/M01 A3015 RMK AO2
KHEG 221015Z AUTO 35007KT CLR 10/M01 A3014 RMK AO2
KHEG 220955Z AUTO 35007KT CLR 11/M00 A3014 RMK AO2
KHEG 220935Z AUTO 35009KT CLR 11/M01 A3013 RMK AO2
KHEG 220915Z AUTO 35008G14KT CLR 11/M01 A3012 RMK AO2
KHEG 220855Z AUTO 34008G15KT CLR 12/M00 A3011 RMK AO2
KHEG 220835Z AUTO 34010KT CLR 12/00 A3011 RMK AO2
KHEG 220815Z AUTO 34008KT CLR 13/00 A3010 RMK AO2
KHEG 220755Z AUTO 34009KT CLR 13/01 A3009 RMK AO2
KHEG 220735Z AUTO 34009KT CLR 14/01 A3009 RMK AO2
KHEG 220715Z AUTO 32009KT CLR 14/02 A3009 RMK AO2
KHEG 220655Z AUTO 33008KT 300V360 CLR 15/02 A3008 RMK AO2
KHEG 220635Z AUTO 33008KT BKN039 15/02 A3008 RMK AO2
KHEG 220615Z AUTO 33007KT BKN038 BKN045 16/03 A3008 RMK AO2
KHEG 220555Z AUTO 33006G11KT FEW043 16/03 A3007 RMK AO2
KHEG 220535Z AUTO 32007G13KT CLR 17/04 A3007 RMK AO2
KHEG 220515Z AUTO 32010KT CLR 17/05 A3006 RMK AO2
KHEG 220455Z AUTO 32010G16KT CLR 18/06 A3006 RMK AO2
KHEG 220435Z AUTO 31006KT CLR 18/09 A3006 RMK AO2
KHEG 220415Z AUTO 30007KT CLR 19/09 A3005 RMK AO2
KHEG 220355Z AUTO 31009KT FEW049 19/08 A3005 RMK AO2
KHEG 220335Z AUTO 30006KT FEW050 20/09 A3004 RMK AO2
KHEG 220315Z AUTO 30008KT FEW048 20/09 A3004 RMK AO2
KHEG 220255Z AUTO 30007KT FEW049 FEW055 20/09 A3003 RMK AO2
KHEG 220235Z AUTO 30005KT CLR 20/10 A3003 RMK AO2
KHEG 220215Z AUTO 29005KT CLR 21/10 A3002 RMK AO2
KHEG 220155Z AUTO 29006KT FEW055 21/10 A3000 RMK AO2
KHEG 220135Z AUTO 28007KT FEW055 21/10 A3000 RMK AO2
KHEG 220115Z AUTO 27005KT FEW049 FEW055 20/11 A2999 RMK AO2
KHEG 220055Z AUTO 27004KT CLR 21/11 A2997 RMK AO2
KHEG 220035Z AUTO 28004KT CLR 21/11 A2997 RMK AO2
KHEG 220015Z AUTO 26005KT CLR 22/11 A2996 RMK AO2
KHEG 212355Z AUTO 24004KT CLR 23/11 A2995 RMK AO2
KHEG 212335Z AUTO 27006KT CLR 25/10 A2995 RMK AO2
KHEG 212315Z AUTO 27007KT CLR 26/10 A2994 RMK AO2
KHEG 212255Z AUTO VRB04G13KT CLR 27/10 A2994 RMK AO2
KHEG 212235Z AUTO 29008G14KT CLR 27/10 A2994 RMK AO2
KHEG 212215Z AUTO 27010G16KT CLR 28/10 A2993 RMK AO2
KHEG 212155Z AUTO 26012G18KT CLR 28/10 A2993 RMK AO2
KHEG 212135Z AUTO 29010G20KT CLR 28/10 A2993 RMK AO2
KHEG 212115Z AUTO 23009G16KT CLR 28/10 A2993 RMK AO2
KHEG 212055Z AUTO 28010G18KT CLR 28/11 A2993 RMK AO2
KHEG 212035Z AUTO 26011G22KT CLR 28/10 A2993 RMK AO2
KHEG 212015Z AUTO 30014KT CLR 28/10 A2992 RMK AO2
KHEG 211955Z AUTO 27014KT CLR 28/10 A2993 RMK AO2
KHEG 211935Z AUTO 25014G21KT CLR 28/11 A2994 RMK AO2
KHEG 211915Z AUTO 25013G20KT CLR 28/11 A2995 RMK AO2
KHEG 211835Z AUTO 27008G16KT 230V290 CLR 27/11 A2996 RMK AO2
KHEG 211815Z AUTO 25013G18KT CLR 27/11 A2997 RMK AO2
KHEG 211755Z AUTO 25013KT CLR 27/11 A2997 RMK AO2
KHEG 211735Z AUTO 25010G16KT CLR 27/11 A2998 RMK AO2
KHEG 211715Z AUTO 26012G18KT CLR 26/11 A2999 RMK AO2
KHEG 211655Z AUTO 29010G18KT 250V310 CLR 26/11 A2999 RMK AO2
KHEG 211635Z AUTO 28015KT CLR 26/12 A2999 RMK AO2
KHEG 211615Z AUTO 27011KT CLR 25/12 A3000 RMK AO2
KHEG 211555Z AUTO 26011G16KT CLR 25/12 A3001 RMK AO2
KHEG 211535Z AUTO 30007KT CLR 25/13 A3001 RMK AO2
KHEG 211515Z AUTO 28007KT CLR 24/13 A3001 RMK AO2
KHEG 211455Z AUTO VRB06KT CLR 24/13 A3001 RMK AO2
KHEG 211435Z AUTO 28008KT CLR 23/13 A3001 RMK AO2
KHEG 211415Z AUTO 29008KT CLR 23/13 A3001 RMK AO2
KHEG 211355Z AUTO 31008KT CLR 22/13 A3001 RMK AO2
KHEG 211335Z AUTO VRB06KT CLR 21/14 A3001 RMK AO2
KHEG 211315Z AUTO 30006KT CLR 21/15 A3001 RMK AO2
KHEG 211255Z AUTO 29007KT CLR 19/16 A3001 RMK AO2
KHEG 211235Z AUTO 26005KT 18/17 A3000 RMK AO2
KHEG 211215Z AUTO 24004KT 17/17 A3000 RMK AO2
KHEG 211155Z AUTO 00000KT 16/16 A3000 RMK AO2
KHEG 211135Z AUTO 00000KT 15/15 A3000 RMK AO2
KHEG 211115Z AUTO 00000KT 15/15 A2999 RMK AO2
KHEG 211055Z AUTO 00000KT 15/15 A2999 RMK AO2
KHEG 211035Z AUTO 00000KT 15/15 A2999 RMK AO2
KHEG 211015Z AUTO 00000KT 16/15 A2998 RMK AO2
KHEG 210955Z AUTO 00000KT 15/15 A2997 RMK AO2
KHEG 210935Z AUTO 00000KT 15/15 A2997 RMK AO2
KHEG 210915Z AUTO 17004KT 15/15 A2996 RMK AO2
KHEG 210855Z AUTO 00000KT 15/15 A2996 RMK AO2
KHEG 210835Z AUTO 17003KT 15/15 A2996 RMK AO2
KHEG 210815Z AUTO 00000KT 15/15 A2995 RMK AO2
KHEG 210755Z AUTO 00000KT 16/16 A2995 RMK AO2
KHEG 210735Z AUTO 00000KT 16/16 A2995 RMK AO2
KHEG 210715Z AUTO 00000KT 16/15 A2995 RMK AO2
KHEG 210655Z AUTO 00000KT 16/15 A2996 RMK AO2
KHEG 210635Z AUTO 00000KT 16/15 A2997 RMK AO2
KHEG 210615Z AUTO 00000KT 17/16 A2997 RMK AO2
KHEG 210555Z AUTO 00000KT OVC110 17/16 A2998 RMK AO2
KHEG 210535Z AUTO 00000KT OVC110 16/15 A2998 RMK AO2
KHEG 210515Z AUTO 00000KT OVC110 16/15 A2999 RMK AO2
KHEG 210455Z AUTO 00000KT BKN110 16/15 A2998 RMK AO2
KHEG 210435Z AUTO 00000KT 16/15 A2997 RMK AO2
KHEG 210415Z AUTO 00000KT 17/15 A2998 RMK AO2
KHEG 210355Z AUTO 00000KT 17/16 A2998 RMK AO2
KHEG 210335Z AUTO 00000KT CLR 18/15 A2998 RMK AO2
KHEG 210315Z AUTO 00000KT CLR 19/15 A2997 RMK AO2
KHEG 210255Z AUTO 14005KT CLR 19/15 A2997 RMK AO2
KHEG 210235Z AUTO 14003KT CLR 20/15 A2997 RMK AO2